sensor_id;sensor_type;location;lat;lon;timestamp;temperature;humidity
16823;DHT22;8528;49.976;11.858;2022-09-09T00:02:22;8.40;99.90
16823;DHT22;8528;49.976;11.858;2022-09-09T00:05:17;8.60;99.90
16823;DHT22;8528;49.976;11.858;2022-09-09T00:07:51;8.60;99.90
16823;DHT22;8528;49.976;11.858;2022-09-09T00:10:36;8.70;99.90
16823;DHT22;8528;49.976;11.858;2022-09-09T00:13:19;8.60;99.90
16823;DHT22;8528;49.976;11.858;2022-09-09T00:21:38;8.20;99.90
16823;DHT22;8528;49.976;11.858;2022-09-09T00:24:32;8.30;99.90
16823;DHT22;8528;49.976;11.858;2022-09-09T00:27:41;8.40;99.90
16823;DHT22;8528;49.976;11.858;2022-09-09T00:30:26;8.10;99.90
16823;DHT22;8528;49.976;11.858;2022-09-09T00:32:55;8.00;99.90
16823;DHT22;8528;49.976;11.858;2022-09-09T00:35:34;8.00;99.90
16823;DHT22;8528;49.976;11.858;2022-09-09T00:38:35;8.10;99.90
16823;DHT22;8528;49.976;11.858;2022-09-09T00:43:56;7.70;99.90
16823;DHT22;8528;49.976;11.858;2022-09-09T00:46:38;7.70;99.90
16823;DHT22;8528;49.976;11.858;2022-09-09T00:52:26;7.50;99.90
16823;DHT22;8528;49.976;11.858;2022-09-09T00:58:23;7.80;99.90
16823;DHT22;8528;49.976;11.858;2022-09-09T01:01:09;7.80;99.90
16823;DHT22;8528;49.976;11.858;2022-09-09T01:03:52;7.80;99.90
16823;DHT22;8528;49.976;11.858;2022-09-09T01:06:35;7.80;99.90
16823;DHT22;8528;49.976;11.858;2022-09-09T01:09:38;7.70;99.90
16823;DHT22;8528;49.976;11.858;2022-09-09T01:12:15;7.70;99.90
16823;DHT22;8528;49.976;11.858;2022-09-09T01:14:48;7.70;99.90
16823;DHT22;8528;49.976;11.858;2022-09-09T01:17:31;7.60;99.90
16823;DHT22;8528;49.976;11.858;2022-09-09T01:23:08;7.80;99.90
16823;DHT22;8528;49.976;11.858;2022-09-09T01:28:13;7.60;99.90
16823;DHT22;8528;49.976;11.858;2022-09-09T01:30:45;7.60;99.90
16823;DHT22;8528;49.976;11.858;2022-09-09T01:33:17;7.60;99.90
16823;DHT22;8528;49.976;11.858;2022-09-09T01:38:24;7.90;99.90
16823;DHT22;8528;49.976;11.858;2022-09-09T01:40:54;7.90;99.90
16823;DHT22;8528;49.976;11.858;2022-09-09T01:43:22;7.90;99.90
16823;DHT22;8528;49.976;11.858;2022-09-09T01:46:00;7.80;99.90
16823;DHT22;8528;49.976;11.858;2022-09-09T01:48:28;7.90;99.90
16823;DHT22;8528;49.976;11.858;2022-09-09T01:50:56;7.90;99.90
16823;DHT22;8528;49.976;11.858;2022-09-09T01:53:23;7.90;99.90
16823;DHT22;8528;49.976;11.858;2022-09-09T02:01:39;8.10;99.90
16823;DHT22;8528;49.976;11.858;2022-09-09T02:06:56;7.90;99.90
16823;DHT22;8528;49.976;11.858;2022-09-09T02:09:24;7.80;99.90
16823;DHT22;8528;49.976;11.858;2022-09-09T02:15:04;7.60;99.90
16823;DHT22;8528;49.976;11.858;2022-09-09T02:17:34;8.00;99.90
16823;DHT22;8528;49.976;11.858;2022-09-09T02:20:12;8.10;99.90
16823;DHT22;8528;49.976;11.858;2022-09-09T02:22:43;8.20;99.90
16823;DHT22;8528;49.976;11.858;2022-09-09T02:25:13;8.30;99.90
16823;DHT22;8528;49.976;11.858;2022-09-09T02:27:45;8.20;99.90
16823;DHT22;8528;49.976;11.858;2022-09-09T02:30:17;8.20;99.90
16823;DHT22;8528;49.976;11.858;2022-09-09T02:32:48;8.30;99.90
16823;DHT22;8528;49.976;11.858;2022-09-09T02:35:22;8.40;99.90
16823;DHT22;8528;49.976;11.858;2022-09-09T02:37:55;8.30;99.90
16823;DHT22;8528;49.976;11.858;2022-09-09T02:40:30;8.30;99.90
16823;DHT22;8528;49.976;11.858;2022-09-09T02:42:57;8.40;99.90
16823;DHT22;8528;49.976;11.858;2022-09-09T02:45:27;8.40;99.90
16823;DHT22;8528;49.976;11.858;2022-09-09T02:48:14;8.40;99.90
16823;DHT22;8528;49.976;11.858;2022-09-09T02:53:24;8.30;99.90
16823;DHT22;8528;49.976;11.858;2022-09-09T02:56:05;8.20;99.90
16823;DHT22;8528;49.976;11.858;2022-09-09T02:58:36;8.30;99.90
16823;DHT22;8528;49.976;11.858;2022-09-09T03:01:05;8.30;99.90
16823;DHT22;8528;49.976;11.858;2022-09-09T03:03:32;8.40;99.90
16823;DHT22;8528;49.976;11.858;2022-09-09T03:06:09;8.40;99.90
16823;DHT22;8528;49.976;11.858;2022-09-09T03:08:38;8.40;99.90
16823;DHT22;8528;49.976;11.858;2022-09-09T03:11:05;8.30;99.90
16823;DHT22;8528;49.976;11.858;2022-09-09T03:13:31;8.20;99.90
16823;DHT22;8528;49.976;11.858;2022-09-09T03:15:58;8.30;99.90
16823;DHT22;8528;49.976;11.858;2022-09-09T03:18:25;8.20;99.90
16823;DHT22;8528;49.976;11.858;2022-09-09T03:20:52;8.30;99.90
16823;DHT22;8528;49.976;11.858;2022-09-09T03:23:20;8.30;99.90
16823;DHT22;8528;49.976;11.858;2022-09-09T03:25:50;8.30;99.90
16823;DHT22;8528;49.976;11.858;2022-09-09T03:28:18;8.30;99.90
16823;DHT22;8528;49.976;11.858;2022-09-09T03:30:45;8.40;99.90
16823;DHT22;8528;49.976;11.858;2022-09-09T03:33:11;8.40;99.90
16823;DHT22;8528;49.976;11.858;2022-09-09T03:35:44;8.50;99.90
16823;DHT22;8528;49.976;11.858;2022-09-09T03:38:12;8.50;99.90
16823;DHT22;8528;49.976;11.858;2022-09-09T03:40:38;8.60;99.90
16823;DHT22;8528;49.976;11.858;2022-09-09T03:43:09;8.60;99.90
16823;DHT22;8528;49.976;11.858;2022-09-09T03:45:36;8.70;99.90
16823;DHT22;8528;49.976;11.858;2022-09-09T03:48:02;8.80;99.90
16823;DHT22;8528;49.976;11.858;2022-09-09T03:50:31;8.70;99.90
16823;DHT22;8528;49.976;11.858;2022-09-09T03:53:01;8.70;99.90
16823;DHT22;8528;49.976;11.858;2022-09-09T03:55:35;8.70;99.90
16823;DHT22;8528;49.976;11.858;2022-09-09T03:58:02;8.60;99.90
16823;DHT22;8528;49.976;11.858;2022-09-09T04:00:34;8.60;99.90
16823;DHT22;8528;49.976;11.858;2022-09-09T04:03:01;8.60;99.90
16823;DHT22;8528;49.976;11.858;2022-09-09T04:05:28;8.60;99.90
16823;DHT22;8528;49.976;11.858;2022-09-09T04:07:55;8.60;99.90
16823;DHT22;8528;49.976;11.858;2022-09-09T04:10:22;8.70;99.90
16823;DHT22;8528;49.976;11.858;2022-09-09T04:12:49;8.70;99.90
16823;DHT22;8528;49.976;11.858;2022-09-09T04:15:16;8.70;99.90
16823;DHT22;8528;49.976;11.858;2022-09-09T04:17:45;8.70;99.90
16823;DHT22;8528;49.976;11.858;2022-09-09T04:20:11;8.70;99.90
16823;DHT22;8528;49.976;11.858;2022-09-09T04:22:45;8.70;99.90
16823;DHT22;8528;49.976;11.858;2022-09-09T04:25:12;8.60;99.90
16823;DHT22;8528;49.976;11.858;2022-09-09T04:27:41;8.70;99.90
16823;DHT22;8528;49.976;11.858;2022-09-09T04:30:09;8.80;99.90
16823;DHT22;8528;49.976;11.858;2022-09-09T04:32:39;8.80;99.90
16823;DHT22;8528;49.976;11.858;2022-09-09T04:35:05;9.10;99.90
16823;DHT22;8528;49.976;11.858;2022-09-09T04:37:32;9.20;99.90
16823;DHT22;8528;49.976;11.858;2022-09-09T04:39:59;9.20;99.90
16823;DHT22;8528;49.976;11.858;2022-09-09T04:42:34;9.20;99.90
16823;DHT22;8528;49.976;11.858;2022-09-09T04:45:01;9.20;99.90
16823;DHT22;8528;49.976;11.858;2022-09-09T04:47:28;9.30;99.90
16823;DHT22;8528;49.976;11.858;2022-09-09T04:49:54;9.20;99.90
16823;DHT22;8528;49.976;11.858;2022-09-09T04:52:24;9.30;99.90
16823;DHT22;8528;49.976;11.858;2022-09-09T04:54:51;9.50;99.90
16823;DHT22;8528;49.976;11.858;2022-09-09T04:57:23;9.50;99.90
16823;DHT22;8528;49.976;11.858;2022-09-09T04:59:50;9.40;99.90
16823;DHT22;8528;49.976;11.858;2022-09-09T05:02:17;9.30;99.90
16823;DHT22;8528;49.976;11.858;2022-09-09T05:04:44;9.30;99.90
16823;DHT22;8528;49.976;11.858;2022-09-09T05:07:17;9.20;99.90
16823;DHT22;8528;49.976;11.858;2022-09-09T05:09:44;9.20;99.90
16823;DHT22;8528;49.976;11.858;2022-09-09T05:12:17;9.30;99.90
16823;DHT22;8528;49.976;11.858;2022-09-09T05:14:44;9.40;99.90
16823;DHT22;8528;49.976;11.858;2022-09-09T05:17:10;9.50;99.90
16823;DHT22;8528;49.976;11.858;2022-09-09T05:19:37;9.60;99.90
16823;DHT22;8528;49.976;11.858;2022-09-09T05:22:04;9.60;99.90
16823;DHT22;8528;49.976;11.858;2022-09-09T05:24:34;9.90;99.90
16823;DHT22;8528;49.976;11.858;2022-09-09T05:27:01;9.90;99.90
16823;DHT22;8528;49.976;11.858;2022-09-09T05:29:28;9.90;99.90
16823;DHT22;8528;49.976;11.858;2022-09-09T05:31:55;9.90;99.90
16823;DHT22;8528;49.976;11.858;2022-09-09T05:34:22;10.10;99.90
16823;DHT22;8528;49.976;11.858;2022-09-09T05:36:49;10.20;99.90
16823;DHT22;8528;49.976;11.858;2022-09-09T05:39:18;10.20;99.90
16823;DHT22;8528;49.976;11.858;2022-09-09T05:41:48;10.40;99.90
16823;DHT22;8528;49.976;11.858;2022-09-09T05:44:18;10.60;99.90
16823;DHT22;8528;49.976;11.858;2022-09-09T05:46:49;10.70;99.90
16823;DHT22;8528;49.976;11.858;2022-09-09T05:49:17;10.80;99.90
16823;DHT22;8528;49.976;11.858;2022-09-09T05:51:43;10.80;99.90
16823;DHT22;8528;49.976;11.858;2022-09-09T05:54:10;10.90;99.90
16823;DHT22;8528;49.976;11.858;2022-09-09T05:56:39;10.90;99.90
16823;DHT22;8528;49.976;11.858;2022-09-09T05:59:09;11.00;99.90
16823;DHT22;8528;49.976;11.858;2022-09-09T06:01:39;11.10;99.90
16823;DHT22;8528;49.976;11.858;2022-09-09T06:04:09;11.10;99.90
16823;DHT22;8528;49.976;11.858;2022-09-09T06:06:37;11.20;99.90
16823;DHT22;8528;49.976;11.858;2022-09-09T06:09:07;11.20;99.90
16823;DHT22;8528;49.976;11.858;2022-09-09T06:11:38;11.40;99.90
16823;DHT22;8528;49.976;11.858;2022-09-09T06:14:05;11.60;99.90
16823;DHT22;8528;49.976;11.858;2022-09-09T06:16:33;11.60;99.90
16823;DHT22;8528;49.976;11.858;2022-09-09T06:19:01;11.60;99.90
16823;DHT22;8528;49.976;11.858;2022-09-09T06:21:34;11.70;99.90
16823;DHT22;8528;49.976;11.858;2022-09-09T06:24:09;11.80;99.90
16823;DHT22;8528;49.976;11.858;2022-09-09T06:26:45;11.80;99.90
16823;DHT22;8528;49.976;11.858;2022-09-09T06:29:12;11.70;99.90
16823;DHT22;8528;49.976;11.858;2022-09-09T06:31:42;11.70;99.90
16823;DHT22;8528;49.976;11.858;2022-09-09T06:34:09;11.80;99.90
16823;DHT22;8528;49.976;11.858;2022-09-09T06:36:37;11.90;99.90
16823;DHT22;8528;49.976;11.858;2022-09-09T06:39:08;12.10;99.90
16823;DHT22;8528;49.976;11.858;2022-09-09T06:41:40;12.30;99.90
16823;DHT22;8528;49.976;11.858;2022-09-09T06:44:10;12.60;99.90
16823;DHT22;8528;49.976;11.858;2022-09-09T06:46:42;12.70;99.90
16823;DHT22;8528;49.976;11.858;2022-09-09T06:49:09;12.90;99.90
16823;DHT22;8528;49.976;11.858;2022-09-09T06:51:39;13.20;99.90
16823;DHT22;8528;49.976;11.858;2022-09-09T06:54:10;13.40;99.90
16823;DHT22;8528;49.976;11.858;2022-09-09T06:56:39;13.40;99.90
16823;DHT22;8528;49.976;11.858;2022-09-09T06:59:10;13.40;99.90
16823;DHT22;8528;49.976;11.858;2022-09-09T07:01:40;13.40;99.90
16823;DHT22;8528;49.976;11.858;2022-09-09T07:04:07;13.40;99.90
16823;DHT22;8528;49.976;11.858;2022-09-09T07:06:41;13.40;99.90
16823;DHT22;8528;49.976;11.858;2022-09-09T07:09:11;13.50;99.90
16823;DHT22;8528;49.976;11.858;2022-09-09T07:11:43;13.80;99.90
16823;DHT22;8528;49.976;11.858;2022-09-09T07:14:11;14.30;99.90
16823;DHT22;8528;49.976;11.858;2022-09-09T07:16:42;14.70;99.90
16823;DHT22;8528;49.976;11.858;2022-09-09T07:19:10;15.00;99.90
16823;DHT22;8528;49.976;11.858;2022-09-09T07:21:37;15.40;99.90
16823;DHT22;8528;49.976;11.858;2022-09-09T07:24:04;15.90;99.90
16823;DHT22;8528;49.976;11.858;2022-09-09T07:26:38;16.20;99.90
16823;DHT22;8528;49.976;11.858;2022-09-09T07:29:05;16.30;99.90
16823;DHT22;8528;49.976;11.858;2022-09-09T07:31:35;16.40;99.90
16823;DHT22;8528;49.976;11.858;2022-09-09T07:34:04;16.40;99.90
16823;DHT22;8528;49.976;11.858;2022-09-09T07:36:40;16.30;99.90
16823;DHT22;8528;49.976;11.858;2022-09-09T07:39:13;16.10;99.90
16823;DHT22;8528;49.976;11.858;2022-09-09T07:41:45;16.10;99.90
16823;DHT22;8528;49.976;11.858;2022-09-09T07:44:21;16.00;99.90
16823;DHT22;8528;49.976;11.858;2022-09-09T07:46:49;15.90;99.90
16823;DHT22;8528;49.976;11.858;2022-09-09T07:49:19;16.00;99.90
16823;DHT22;8528;49.976;11.858;2022-09-09T07:51:58;15.90;99.90
16823;DHT22;8528;49.976;11.858;2022-09-09T07:54:25;16.00;99.90
16823;DHT22;8528;49.976;11.858;2022-09-09T07:56:52;16.00;99.90
16823;DHT22;8528;49.976;11.858;2022-09-09T07:59:19;16.10;99.90
16823;DHT22;8528;49.976;11.858;2022-09-09T08:01:49;16.20;99.90
16823;DHT22;8528;49.976;11.858;2022-09-09T08:04:21;16.50;99.90
16823;DHT22;8528;49.976;11.858;2022-09-09T08:06:52;16.70;99.90
16823;DHT22;8528;49.976;11.858;2022-09-09T08:09:23;16.80;99.90
16823;DHT22;8528;49.976;11.858;2022-09-09T08:11:56;17.20;99.90
16823;DHT22;8528;49.976;11.858;2022-09-09T08:14:26;17.50;99.90
16823;DHT22;8528;49.976;11.858;2022-09-09T08:16:53;17.60;99.90
16823;DHT22;8528;49.976;11.858;2022-09-09T08:19:21;17.60;99.90
16823;DHT22;8528;49.976;11.858;2022-09-09T08:21:47;17.90;99.90
16823;DHT22;8528;49.976;11.858;2022-09-09T08:24:16;18.30;99.90
16823;DHT22;8528;49.976;11.858;2022-09-09T08:26:45;18.40;99.90
16823;DHT22;8528;49.976;11.858;2022-09-09T08:29:13;18.40;99.90
16823;DHT22;8528;49.976;11.858;2022-09-09T08:31:55;18.70;99.90
16823;DHT22;8528;49.976;11.858;2022-09-09T08:34:25;18.70;99.90
16823;DHT22;8528;49.976;11.858;2022-09-09T08:36:59;18.20;99.90
16823;DHT22;8528;49.976;11.858;2022-09-09T08:39:26;17.90;99.90
16823;DHT22;8528;49.976;11.858;2022-09-09T08:42:12;17.90;99.90
16823;DHT22;8528;49.976;11.858;2022-09-09T08:44:55;18.00;99.90
16823;DHT22;8528;49.976;11.858;2022-09-09T08:50:35;17.70;99.90
16823;DHT22;8528;49.976;11.858;2022-09-09T08:53:16;17.60;99.90
16823;DHT22;8528;49.976;11.858;2022-09-09T08:56:01;17.90;99.90
16823;DHT22;8528;49.976;11.858;2022-09-09T08:58:32;18.00;99.90
16823;DHT22;8528;49.976;11.858;2022-09-09T09:01:12;18.10;99.90
16823;DHT22;8528;49.976;11.858;2022-09-09T09:03:55;18.10;99.90
16823;DHT22;8528;49.976;11.858;2022-09-09T09:07:00;18.00;99.90
16823;DHT22;8528;49.976;11.858;2022-09-09T09:12:42;18.40;99.90
16823;DHT22;8528;49.976;11.858;2022-09-09T09:15:24;18.40;99.90
16823;DHT22;8528;49.976;11.858;2022-09-09T09:17:56;18.50;99.90
16823;DHT22;8528;49.976;11.858;2022-09-09T09:20:47;18.50;99.90
16823;DHT22;8528;49.976;11.858;2022-09-09T09:23:22;18.70;99.90
16823;DHT22;8528;49.976;11.858;2022-09-09T09:25:51;19.00;99.90
16823;DHT22;8528;49.976;11.858;2022-09-09T09:28:29;18.80;99.90
16823;DHT22;8528;49.976;11.858;2022-09-09T09:31:08;18.60;99.90
16823;DHT22;8528;49.976;11.858;2022-09-09T09:33:50;18.90;99.90
16823;DHT22;8528;49.976;11.858;2022-09-09T09:36:32;19.20;99.90
16823;DHT22;8528;49.976;11.858;2022-09-09T09:39:02;19.20;99.90
16823;DHT22;8528;49.976;11.858;2022-09-09T09:41:49;19.50;99.90
16823;DHT22;8528;49.976;11.858;2022-09-09T09:44:28;20.00;99.90
16823;DHT22;8528;49.976;11.858;2022-09-09T09:47:11;20.20;99.90
16823;DHT22;8528;49.976;11.858;2022-09-09T09:49:39;20.00;99.90
16823;DHT22;8528;49.976;11.858;2022-09-09T09:52:21;20.40;99.90
16823;DHT22;8528;49.976;11.858;2022-09-09T09:54:48;20.60;99.90
16823;DHT22;8528;49.976;11.858;2022-09-09T09:57:16;20.80;99.90
16823;DHT22;8528;49.976;11.858;2022-09-09T09:59:44;21.00;99.90
16823;DHT22;8528;49.976;11.858;2022-09-09T10:02:23;21.10;99.90
16823;DHT22;8528;49.976;11.858;2022-09-09T10:05:16;21.10;99.90
16823;DHT22;8528;49.976;11.858;2022-09-09T10:07:45;21.50;99.90
16823;DHT22;8528;49.976;11.858;2022-09-09T10:10:21;21.60;99.90
16823;DHT22;8528;49.976;11.858;2022-09-09T10:12:57;21.60;99.90
16823;DHT22;8528;49.976;11.858;2022-09-09T10:24:07;20.20;99.90
16823;DHT22;8528;49.976;11.858;2022-09-09T10:26:58;20.00;99.90
16823;DHT22;8528;49.976;11.858;2022-09-09T10:37:51;19.70;99.90
16823;DHT22;8528;49.976;11.858;2022-09-09T10:40:45;19.50;99.90
16823;DHT22;8528;49.976;11.858;2022-09-09T10:46:48;19.90;99.90
16823;DHT22;8528;49.976;11.858;2022-09-09T10:49:33;20.00;99.90
16823;DHT22;8528;49.976;11.858;2022-09-09T10:55:14;20.70;99.90
16823;DHT22;8528;49.976;11.858;2022-09-09T10:57:51;20.80;99.90
16823;DHT22;8528;49.976;11.858;2022-09-09T11:03:03;21.00;99.90
16823;DHT22;8528;49.976;11.858;2022-09-09T11:05:44;20.90;99.90
16823;DHT22;8528;49.976;11.858;2022-09-09T11:08:21;21.30;99.90
16823;DHT22;8528;49.976;11.858;2022-09-09T11:11:00;21.30;99.90
16823;DHT22;8528;49.976;11.858;2022-09-09T11:13:44;21.70;99.90
16823;DHT22;8528;49.976;11.858;2022-09-09T11:16:30;21.50;99.90
16823;DHT22;8528;49.976;11.858;2022-09-09T11:21:46;20.70;99.90
16823;DHT22;8528;49.976;11.858;2022-09-09T11:24:37;20.20;99.90
16823;DHT22;8528;49.976;11.858;2022-09-09T11:27:21;20.10;99.90
16823;DHT22;8528;49.976;11.858;2022-09-09T11:38:49;20.80;99.90
16823;DHT22;8528;49.976;11.858;2022-09-09T11:41:19;20.90;99.90
16823;DHT22;8528;49.976;11.858;2022-09-09T11:46:20;20.10;99.90
16823;DHT22;8528;49.976;11.858;2022-09-09T11:49:02;19.80;99.90
16823;DHT22;8528;49.976;11.858;2022-09-09T11:51:31;19.50;99.90
16823;DHT22;8528;49.976;11.858;2022-09-09T11:54:31;19.20;99.90
16823;DHT22;8528;49.976;11.858;2022-09-09T11:57:02;18.70;99.90
16823;DHT22;8528;49.976;11.858;2022-09-09T11:59:35;17.40;99.90
16823;DHT22;8528;49.976;11.858;2022-09-09T12:02:25;15.70;99.90
16823;DHT22;8528;49.976;11.858;2022-09-09T12:05:08;14.20;99.90
16823;DHT22;8528;49.976;11.858;2022-09-09T12:07:56;13.20;99.90
16823;DHT22;8528;49.976;11.858;2022-09-09T12:13:24;13.00;99.90
16823;DHT22;8528;49.976;11.858;2022-09-09T12:15:56;13.40;99.90
16823;DHT22;8528;49.976;11.858;2022-09-09T12:18:26;13.60;99.90
16823;DHT22;8528;49.976;11.858;2022-09-09T12:23:51;14.40;99.90
16823;DHT22;8528;49.976;11.858;2022-09-09T12:26:36;14.60;99.90
16823;DHT22;8528;49.976;11.858;2022-09-09T12:32:15;14.80;99.90
16823;DHT22;8528;49.976;11.858;2022-09-09T12:34:53;15.00;99.90
16823;DHT22;8528;49.976;11.858;2022-09-09T12:37:32;15.20;99.90
16823;DHT22;8528;49.976;11.858;2022-09-09T12:40:03;15.30;99.90
16823;DHT22;8528;49.976;11.858;2022-09-09T12:42:31;15.20;99.90
16823;DHT22;8528;49.976;11.858;2022-09-09T12:45:19;15.20;99.90
16823;DHT22;8528;49.976;11.858;2022-09-09T12:47:59;15.00;99.90
16823;DHT22;8528;49.976;11.858;2022-09-09T12:50:30;14.70;99.90
16823;DHT22;8528;49.976;11.858;2022-09-09T12:53:33;14.50;99.90
16823;DHT22;8528;49.976;11.858;2022-09-09T12:56:06;14.30;99.90
16823;DHT22;8528;49.976;11.858;2022-09-09T12:58:38;14.40;99.90
16823;DHT22;8528;49.976;11.858;2022-09-09T13:01:22;14.80;99.90
16823;DHT22;8528;49.976;11.858;2022-09-09T13:03:49;15.10;99.90
16823;DHT22;8528;49.976;11.858;2022-09-09T13:06:23;15.30;99.90
16823;DHT22;8528;49.976;11.858;2022-09-09T13:08:59;15.30;99.90
16823;DHT22;8528;49.976;11.858;2022-09-09T13:11:36;15.50;99.90
16823;DHT22;8528;49.976;11.858;2022-09-09T13:14:05;15.80;99.90
16823;DHT22;8528;49.976;11.858;2022-09-09T13:16:35;16.20;99.90
16823;DHT22;8528;49.976;11.858;2022-09-09T13:19:17;16.50;99.90
16823;DHT22;8528;49.976;11.858;2022-09-09T13:21:44;16.60;99.90
16823;DHT22;8528;49.976;11.858;2022-09-09T13:24:33;16.60;99.90
16823;DHT22;8528;49.976;11.858;2022-09-09T13:27:29;16.50;99.90
16823;DHT22;8528;49.976;11.858;2022-09-09T13:29:53;16.40;99.90
16823;DHT22;8528;49.976;11.858;2022-09-09T13:32:25;16.40;99.90
16823;DHT22;8528;49.976;11.858;2022-09-09T13:35:00;16.40;99.90
16823;DHT22;8528;49.976;11.858;2022-09-09T13:37:39;16.50;99.90
16823;DHT22;8528;49.976;11.858;2022-09-09T13:40:18;16.50;99.90
16823;DHT22;8528;49.976;11.858;2022-09-09T13:42:46;16.50;99.90
16823;DHT22;8528;49.976;11.858;2022-09-09T13:45:22;16.30;99.90
16823;DHT22;8528;49.976;11.858;2022-09-09T13:47:54;16.10;99.90
16823;DHT22;8528;49.976;11.858;2022-09-09T13:50:31;16.00;99.90
16823;DHT22;8528;49.976;11.858;2022-09-09T13:52:58;15.80;99.90
16823;DHT22;8528;49.976;11.858;2022-09-09T13:55:27;15.70;99.90
16823;DHT22;8528;49.976;11.858;2022-09-09T13:58:04;15.60;99.90
16823;DHT22;8528;49.976;11.858;2022-09-09T14:00:34;15.30;99.90
16823;DHT22;8528;49.976;11.858;2022-09-09T14:03:01;15.10;99.90
16823;DHT22;8528;49.976;11.858;2022-09-09T14:05:31;14.90;99.90
16823;DHT22;8528;49.976;11.858;2022-09-09T14:07:59;14.80;99.90
16823;DHT22;8528;49.976;11.858;2022-09-09T14:10:29;14.50;99.90
16823;DHT22;8528;49.976;11.858;2022-09-09T14:12:56;14.40;99.90
16823;DHT22;8528;49.976;11.858;2022-09-09T14:15:23;14.20;99.90
16823;DHT22;8528;49.976;11.858;2022-09-09T14:17:50;14.10;99.90
16823;DHT22;8528;49.976;11.858;2022-09-09T14:20:21;14.10;99.90
16823;DHT22;8528;49.976;11.858;2022-09-09T14:22:54;14.00;99.90
16823;DHT22;8528;49.976;11.858;2022-09-09T14:25:29;13.90;99.90
16823;DHT22;8528;49.976;11.858;2022-09-09T14:27:59;13.90;99.90
16823;DHT22;8528;49.976;11.858;2022-09-09T14:30:32;13.90;99.90
16823;DHT22;8528;49.976;11.858;2022-09-09T14:33:02;14.00;99.90
16823;DHT22;8528;49.976;11.858;2022-09-09T14:35:36;14.30;99.90
16823;DHT22;8528;49.976;11.858;2022-09-09T14:38:05;14.90;99.90
16823;DHT22;8528;49.976;11.858;2022-09-09T14:40:34;15.60;99.90
16823;DHT22;8528;49.976;11.858;2022-09-09T14:43:01;16.10;99.90
16823;DHT22;8528;49.976;11.858;2022-09-09T14:45:29;16.60;99.90
16823;DHT22;8528;49.976;11.858;2022-09-09T14:47:55;17.20;99.90
16823;DHT22;8528;49.976;11.858;2022-09-09T14:50:23;17.50;99.90
16823;DHT22;8528;49.976;11.858;2022-09-09T14:52:51;17.60;99.90
16823;DHT22;8528;49.976;11.858;2022-09-09T14:55:18;17.50;99.90
16823;DHT22;8528;49.976;11.858;2022-09-09T14:57:45;17.60;99.90
16823;DHT22;8528;49.976;11.858;2022-09-09T15:00:13;17.90;99.90
16823;DHT22;8528;49.976;11.858;2022-09-09T15:02:40;18.10;99.90
16823;DHT22;8528;49.976;11.858;2022-09-09T15:05:07;18.10;99.90
16823;DHT22;8528;49.976;11.858;2022-09-09T15:07:34;18.10;99.90
16823;DHT22;8528;49.976;11.858;2022-09-09T15:10:02;18.00;99.90
16823;DHT22;8528;49.976;11.858;2022-09-09T15:12:29;17.70;99.90
16823;DHT22;8528;49.976;11.858;2022-09-09T15:14:59;17.60;99.90
16823;DHT22;8528;49.976;11.858;2022-09-09T15:17:29;17.60;99.90
16823;DHT22;8528;49.976;11.858;2022-09-09T15:19:56;17.80;99.90
16823;DHT22;8528;49.976;11.858;2022-09-09T15:22:23;18.20;99.90
16823;DHT22;8528;49.976;11.858;2022-09-09T15:24:50;19.90;99.90
16823;DHT22;8528;49.976;11.858;2022-09-09T15:27:21;21.50;99.90
16823;DHT22;8528;49.976;11.858;2022-09-09T15:29:48;22.90;99.90
16823;DHT22;8528;49.976;11.858;2022-09-09T15:32:15;24.30;99.90
16823;DHT22;8528;49.976;11.858;2022-09-09T15:34:44;25.10;99.90
16823;DHT22;8528;49.976;11.858;2022-09-09T15:37:12;25.90;99.90
16823;DHT22;8528;49.976;11.858;2022-09-09T15:39:40;26.00;99.90
16823;DHT22;8528;49.976;11.858;2022-09-09T15:42:07;26.00;99.90
16823;DHT22;8528;49.976;11.858;2022-09-09T15:44:39;25.80;99.90
16823;DHT22;8528;49.976;11.858;2022-09-09T15:47:12;25.50;99.90
16823;DHT22;8528;49.976;11.858;2022-09-09T15:49:40;25.70;98.60
16823;DHT22;8528;49.976;11.858;2022-09-09T15:52:08;26.10;99.70
16823;DHT22;8528;49.976;11.858;2022-09-09T15:54:41;26.00;98.60
16823;DHT22;8528;49.976;11.858;2022-09-09T15:57:12;26.00;98.10
16823;DHT22;8528;49.976;11.858;2022-09-09T15:59:39;26.10;97.50
16823;DHT22;8528;49.976;11.858;2022-09-09T16:02:09;25.50;97.20
16823;DHT22;8528;49.976;11.858;2022-09-09T16:04:36;25.30;98.80
16823;DHT22;8528;49.976;11.858;2022-09-09T16:07:05;25.50;99.30
16823;DHT22;8528;49.976;11.858;2022-09-09T16:09:33;24.20;99.90
16823;DHT22;8528;49.976;11.858;2022-09-09T16:12:19;22.90;99.90
16823;DHT22;8528;49.976;11.858;2022-09-09T16:14:46;21.50;99.90
16823;DHT22;8528;49.976;11.858;2022-09-09T16:17:15;20.30;99.90
16823;DHT22;8528;49.976;11.858;2022-09-09T16:19:42;19.50;99.90
16823;DHT22;8528;49.976;11.858;2022-09-09T16:22:09;19.20;99.90
16823;DHT22;8528;49.976;11.858;2022-09-09T16:24:38;18.70;99.90
16823;DHT22;8528;49.976;11.858;2022-09-09T16:27:05;18.20;99.90
16823;DHT22;8528;49.976;11.858;2022-09-09T16:29:31;17.80;99.90
16823;DHT22;8528;49.976;11.858;2022-09-09T16:31:58;17.60;99.90
16823;DHT22;8528;49.976;11.858;2022-09-09T16:34:29;17.50;99.90
16823;DHT22;8528;49.976;11.858;2022-09-09T16:36:56;17.40;99.90
16823;DHT22;8528;49.976;11.858;2022-09-09T16:39:23;17.20;99.90
16823;DHT22;8528;49.976;11.858;2022-09-09T16:41:50;17.10;99.90
16823;DHT22;8528;49.976;11.858;2022-09-09T16:44:18;16.90;99.90
16823;DHT22;8528;49.976;11.858;2022-09-09T16:46:49;16.80;99.90
16823;DHT22;8528;49.976;11.858;2022-09-09T16:49:33;16.60;99.90
16823;DHT22;8528;49.976;11.858;2022-09-09T16:52:00;16.40;99.90
16823;DHT22;8528;49.976;11.858;2022-09-09T16:54:27;16.30;99.90
16823;DHT22;8528;49.976;11.858;2022-09-09T16:56:55;16.30;99.90
16823;DHT22;8528;49.976;11.858;2022-09-09T16:59:22;16.30;99.90
16823;DHT22;8528;49.976;11.858;2022-09-09T17:01:52;16.20;99.90
16823;DHT22;8528;49.976;11.858;2022-09-09T17:04:21;16.00;99.90
16823;DHT22;8528;49.976;11.858;2022-09-09T17:06:52;16.00;99.90
16823;DHT22;8528;49.976;11.858;2022-09-09T17:09:27;15.80;99.90
16823;DHT22;8528;49.976;11.858;2022-09-09T17:11:58;15.70;99.90
16823;DHT22;8528;49.976;11.858;2022-09-09T17:14:30;15.60;99.90
16823;DHT22;8528;49.976;11.858;2022-09-09T17:16:57;15.60;99.90
16823;DHT22;8528;49.976;11.858;2022-09-09T17:19:44;15.40;99.90
16823;DHT22;8528;49.976;11.858;2022-09-09T17:22:11;15.30;99.90
16823;DHT22;8528;49.976;11.858;2022-09-09T17:24:43;15.20;99.90
16823;DHT22;8528;49.976;11.858;2022-09-09T17:27:10;15.00;99.90
16823;DHT22;8528;49.976;11.858;2022-09-09T17:29:38;15.00;99.90
16823;DHT22;8528;49.976;11.858;2022-09-09T17:32:14;14.80;99.90
16823;DHT22;8528;49.976;11.858;2022-09-09T17:34:41;14.70;99.90
16823;DHT22;8528;49.976;11.858;2022-09-09T17:37:09;14.60;99.90
16823;DHT22;8528;49.976;11.858;2022-09-09T17:39:36;14.50;99.90
16823;DHT22;8528;49.976;11.858;2022-09-09T17:42:09;14.40;99.90